This is the latest recevied weather packets stored in our database for station/object KB2FWP. If no packets are shown the sender has not sent any weather packets the latest 10 day(s).
| Time | Temp. | Humidity | Pressure | Rain* | Wind** | Luminosity | Snow |
|---|---|---|---|---|---|---|---|
| 1777483898 | 12.22° C | 80% | 1016.6 hPa | 0 mm | - | - | - |
| 1777482937 | 12.22° C | 79% | 1016.5 hPa | 0 mm | - | - | - |
| 1777482036 | 13.33° C | 78% | 1016.8 hPa | 0 mm | - | - | - |
| 1777481146 | 13.33° C | 78% | 1017 hPa | 0 mm | - | - | - |
| 1777480235 | 12.78° C | 79% | 1017.1 hPa | 0 mm | - | - | - |
| 1777479336 | 12.22° C | 81% | 1017.2 hPa | 0 mm | - | - | - |
| 1777478458 | 12.22° C | 77% | 1017.5 hPa | 0 mm | - | - | - |
| 1777477532 | 12.22° C | 77% | 1017.3 hPa | 0 mm | - | - | - |
| 1777476631 | 12.78° C | 74% | 1017.2 hPa | 0 mm | - | - | - |
| 1777475731 | 13.33° C | 71% | 1017.4 hPa | 0 mm | - | - | - |
| 1777474831 | 13.33° C | 71% | 1017.3 hPa | 0 mm | - | - | - |
| 1777473939 | 13.33° C | 72% | 1017.4 hPa | 0 mm | - | - | - |
| 1777473028 | 13.33° C | 73% | 1017 hPa | 0 mm | - | - | - |
| 1777472128 | 13.33° C | 76% | 1016.9 hPa | 0 mm | - | - | - |
| 1777471228 | 13.33° C | 76% | 1016.9 hPa | 0 mm | - | - | - |
| 1777470326 | 13.89° C | 73% | 1017.1 hPa | 0 mm | - | - | - |
| 1777469427 | 13.89° C | 73% | 1016.8 hPa | 0 mm | - | - | - |
| 1777468524 | 13.89° C | 75% | 1016.7 hPa | 0 mm | - | - | - |
| 1777467624 | 13.33° C | 75% | 1017.2 hPa | 0 mm | - | - | - |
| 1777466733 | 12.78° C | 75% | 1017.5 hPa | 0 mm | - | - | - |
| 1777465815 | 12.78° C | 75% | 1017.5 hPa | 0 mm | - | - | - |
| 1777464911 | 12.22° C | 77% | 1017.6 hPa | 0 mm | - | - | - |
| 1777464008 | 11.67° C | 78% | 1017.6 hPa | 0 mm | - | - | - |
| 1777463104 | 11.11° C | 80% | 1017.7 hPa | 0 mm | - | - | - |
| 1777462202 | 10.56° C | 82% | 1018.2 hPa | 0 mm | - | - | - |
* Rain latest hour (hover to see other rain measurements)
** Current wind speed in m/s (hover to see current wind gust speed)